sensor_id;sensor_type;location;lat;lon;timestamp;P1;durP1;ratioP1;P2;durP2;ratioP2
30697;SDS011;17448;47.200;10.902;2022-08-21T00:02:16;4.63;;;2.70;;
30697;SDS011;17448;47.200;10.902;2022-08-21T00:04:42;3.05;;;2.28;;
30697;SDS011;17448;47.200;10.902;2022-08-21T00:07:09;6.90;;;2.22;;
30697;SDS011;17448;47.200;10.902;2022-08-21T00:09:38;7.38;;;2.50;;
30697;SDS011;17448;47.200;10.902;2022-08-21T00:12:05;2.95;;;2.30;;
30697;SDS011;17448;47.200;10.902;2022-08-21T00:14:37;3.25;;;2.03;;
30697;SDS011;17448;47.200;10.902;2022-08-21T00:17:04;2.10;;;1.88;;
30697;SDS011;17448;47.200;10.902;2022-08-21T00:19:35;3.72;;;2.00;;
30697;SDS011;17448;47.200;10.902;2022-08-21T00:22:01;4.15;;;2.13;;
30697;SDS011;17448;47.200;10.902;2022-08-21T00:24:30;6.45;;;2.65;;
30697;SDS011;17448;47.200;10.902;2022-08-21T00:26:57;4.10;;;2.40;;
30697;SDS011;17448;47.200;10.902;2022-08-21T00:29:23;4.03;;;2.40;;
30697;SDS011;17448;47.200;10.902;2022-08-21T00:31:50;8.35;;;2.53;;
30697;SDS011;17448;47.200;10.902;2022-08-21T00:34:19;3.85;;;2.08;;
30697;SDS011;17448;47.200;10.902;2022-08-21T00:36:45;2.95;;;2.30;;
30697;SDS011;17448;47.200;10.902;2022-08-21T00:39:15;4.18;;;2.30;;
30697;SDS011;17448;47.200;10.902;2022-08-21T00:41:42;5.53;;;2.42;;
30697;SDS011;17448;47.200;10.902;2022-08-21T00:44:09;4.05;;;2.45;;
30697;SDS011;17448;47.200;10.902;2022-08-21T00:46:36;5.93;;;2.40;;
30697;SDS011;17448;47.200;10.902;2022-08-21T00:49:03;5.53;;;2.83;;
30697;SDS011;17448;47.200;10.902;2022-08-21T00:51:37;3.03;;;2.22;;
30697;SDS011;17448;47.200;10.902;2022-08-21T00:54:04;3.15;;;1.90;;
30697;SDS011;17448;47.200;10.902;2022-08-21T00:59:21;2.17;;;1.83;;
30697;SDS011;17448;47.200;10.902;2022-08-21T01:01:49;3.47;;;1.92;;
30697;SDS011;17448;47.200;10.902;2022-08-21T01:04:16;4.60;;;2.22;;
30697;SDS011;17448;47.200;10.902;2022-08-21T01:06:42;5.43;;;1.98;;
30697;SDS011;17448;47.200;10.902;2022-08-21T01:09:09;3.88;;;2.05;;
30697;SDS011;17448;47.200;10.902;2022-08-21T01:11:35;3.92;;;1.88;;
30697;SDS011;17448;47.200;10.902;2022-08-21T01:14:02;1.55;;;1.30;;
30697;SDS011;17448;47.200;10.902;2022-08-21T01:16:28;3.67;;;1.67;;
30697;SDS011;17448;47.200;10.902;2022-08-21T01:18:54;3.65;;;1.70;;
30697;SDS011;17448;47.200;10.902;2022-08-21T01:21:22;2.08;;;1.50;;
30697;SDS011;17448;47.200;10.902;2022-08-21T01:23:50;8.32;;;2.17;;
30697;SDS011;17448;47.200;10.902;2022-08-21T01:26:18;4.03;;;1.80;;
30697;SDS011;17448;47.200;10.902;2022-08-21T01:29:16;3.88;;;1.70;;
30697;SDS011;17448;47.200;10.902;2022-08-21T01:31:32;6.20;;;1.70;;
30697;SDS011;17448;47.200;10.902;2022-08-21T01:33:58;3.55;;;1.60;;
30697;SDS011;17448;47.200;10.902;2022-08-21T01:36:25;2.35;;;1.50;;
30697;SDS011;17448;47.200;10.902;2022-08-21T01:38:51;5.97;;;1.73;;
30697;SDS011;17448;47.200;10.902;2022-08-21T01:41:17;2.47;;;1.40;;
30697;SDS011;17448;47.200;10.902;2022-08-21T01:43:44;2.20;;;1.60;;
30697;SDS011;17448;47.200;10.902;2022-08-21T01:46:11;2.85;;;1.60;;
30697;SDS011;17448;47.200;10.902;2022-08-21T01:48:37;3.20;;;1.85;;
30697;SDS011;17448;47.200;10.902;2022-08-21T01:51:03;3.83;;;1.55;;
30697;SDS011;17448;47.200;10.902;2022-08-21T01:53:29;2.80;;;1.55;;
30697;SDS011;17448;47.200;10.902;2022-08-21T01:55:56;3.05;;;1.58;;
30697;SDS011;17448;47.200;10.902;2022-08-21T01:58:25;3.28;;;1.60;;
30697;SDS011;17448;47.200;10.902;2022-08-21T02:00:51;3.85;;;1.75;;
30697;SDS011;17448;47.200;10.902;2022-08-21T02:03:18;4.72;;;2.03;;
30697;SDS011;17448;47.200;10.902;2022-08-21T02:05:44;5.18;;;1.88;;
30697;SDS011;17448;47.200;10.902;2022-08-21T02:08:11;2.17;;;1.67;;
30697;SDS011;17448;47.200;10.902;2022-08-21T02:10:38;3.58;;;1.95;;
30697;SDS011;17448;47.200;10.902;2022-08-21T02:13:06;5.82;;;1.75;;
30697;SDS011;17448;47.200;10.902;2022-08-21T02:15:34;4.38;;;2.00;;
30697;SDS011;17448;47.200;10.902;2022-08-21T02:18:01;6.55;;;2.55;;
30697;SDS011;17448;47.200;10.902;2022-08-21T02:20:29;3.05;;;1.38;;
30697;SDS011;17448;47.200;10.902;2022-08-21T02:22:56;2.72;;;1.65;;
30697;SDS011;17448;47.200;10.902;2022-08-21T02:25:23;2.05;;;1.60;;
30697;SDS011;17448;47.200;10.902;2022-08-21T02:27:50;2.53;;;1.75;;
30697;SDS011;17448;47.200;10.902;2022-08-21T02:30:18;4.75;;;1.48;;
30697;SDS011;17448;47.200;10.902;2022-08-21T02:32:44;4.80;;;1.48;;
30697;SDS011;17448;47.200;10.902;2022-08-21T02:35:11;3.67;;;1.90;;
30697;SDS011;17448;47.200;10.902;2022-08-21T02:37:44;4.03;;;1.90;;
30697;SDS011;17448;47.200;10.902;2022-08-21T02:40:11;4.88;;;1.98;;
30697;SDS011;17448;47.200;10.902;2022-08-21T02:42:37;2.15;;;1.55;;
30697;SDS011;17448;47.200;10.902;2022-08-21T02:45:05;4.25;;;1.85;;
30697;SDS011;17448;47.200;10.902;2022-08-21T02:47:31;7.30;;;2.10;;
30697;SDS011;17448;47.200;10.902;2022-08-21T02:49:57;7.47;;;1.90;;
30697;SDS011;17448;47.200;10.902;2022-08-21T02:52:24;5.05;;;2.03;;
30697;SDS011;17448;47.200;10.902;2022-08-21T02:54:50;4.32;;;1.73;;
30697;SDS011;17448;47.200;10.902;2022-08-21T02:57:16;2.53;;;1.40;;
30697;SDS011;17448;47.200;10.902;2022-08-21T02:59:42;2.25;;;1.73;;
30697;SDS011;17448;47.200;10.902;2022-08-21T03:02:08;3.05;;;1.77;;
30697;SDS011;17448;47.200;10.902;2022-08-21T03:04:36;2.67;;;1.60;;
30697;SDS011;17448;47.200;10.902;2022-08-21T03:07:02;3.42;;;1.60;;
30697;SDS011;17448;47.200;10.902;2022-08-21T03:09:28;3.58;;;1.60;;
30697;SDS011;17448;47.200;10.902;2022-08-21T03:11:54;2.95;;;1.92;;
30697;SDS011;17448;47.200;10.902;2022-08-21T03:14:21;4.28;;;1.90;;
30697;SDS011;17448;47.200;10.902;2022-08-21T03:16:47;2.13;;;1.70;;
30697;SDS011;17448;47.200;10.902;2022-08-21T03:19:13;3.10;;;2.20;;
30697;SDS011;17448;47.200;10.902;2022-08-21T03:21:39;3.40;;;1.52;;
30697;SDS011;17448;47.200;10.902;2022-08-21T03:24:05;4.38;;;1.65;;
30697;SDS011;17448;47.200;10.902;2022-08-21T03:26:32;2.22;;;1.90;;
30697;SDS011;17448;47.200;10.902;2022-08-21T03:28:58;1.92;;;1.70;;
30697;SDS011;17448;47.200;10.902;2022-08-21T03:31:24;2.10;;;1.90;;
30697;SDS011;17448;47.200;10.902;2022-08-21T03:33:55;2.42;;;1.73;;
30697;SDS011;17448;47.200;10.902;2022-08-21T03:36:22;2.35;;;1.95;;
30697;SDS011;17448;47.200;10.902;2022-08-21T03:38:49;4.25;;;1.60;;
30697;SDS011;17448;47.200;10.902;2022-08-21T03:41:15;2.00;;;1.70;;
30697;SDS011;17448;47.200;10.902;2022-08-21T03:43:41;4.53;;;2.13;;
30697;SDS011;17448;47.200;10.902;2022-08-21T03:46:07;5.88;;;2.22;;
30697;SDS011;17448;47.200;10.902;2022-08-21T03:48:34;4.03;;;2.17;;
30697;SDS011;17448;47.200;10.902;2022-08-21T03:51:01;2.55;;;1.70;;
30697;SDS011;17448;47.200;10.902;2022-08-21T03:53:27;4.07;;;1.90;;
30697;SDS011;17448;47.200;10.902;2022-08-21T03:55:55;3.00;;;1.60;;
30697;SDS011;17448;47.200;10.902;2022-08-21T03:58:23;2.45;;;1.60;;
30697;SDS011;17448;47.200;10.902;2022-08-21T04:00:50;3.20;;;1.50;;
30697;SDS011;17448;47.200;10.902;2022-08-21T04:03:17;6.53;;;1.60;;
30697;SDS011;17448;47.200;10.902;2022-08-21T04:05:45;3.25;;;1.55;;
30697;SDS011;17448;47.200;10.902;2022-08-21T04:08:11;12.15;;;1.83;;
30697;SDS011;17448;47.200;10.902;2022-08-21T04:10:38;7.35;;;1.80;;
30697;SDS011;17448;47.200;10.902;2022-08-21T04:13:05;1.80;;;1.40;;
30697;SDS011;17448;47.200;10.902;2022-08-21T04:15:33;4.68;;;1.60;;
30697;SDS011;17448;47.200;10.902;2022-08-21T04:17:59;2.58;;;1.70;;
30697;SDS011;17448;47.200;10.902;2022-08-21T04:20:25;5.10;;;1.55;;
30697;SDS011;17448;47.200;10.902;2022-08-21T04:22:52;2.85;;;1.80;;
30697;SDS011;17448;47.200;10.902;2022-08-21T04:25:19;4.13;;;1.58;;
30697;SDS011;17448;47.200;10.902;2022-08-21T04:27:46;2.70;;;1.85;;
30697;SDS011;17448;47.200;10.902;2022-08-21T04:30:13;2.15;;;1.10;;
30697;SDS011;17448;47.200;10.902;2022-08-21T04:32:41;4.68;;;1.52;;
30697;SDS011;17448;47.200;10.902;2022-08-21T04:35:09;3.60;;;1.75;;
30697;SDS011;17448;47.200;10.902;2022-08-21T04:37:36;5.40;;;2.80;;
30697;SDS011;17448;47.200;10.902;2022-08-21T04:40:03;2.83;;;2.10;;
30697;SDS011;17448;47.200;10.902;2022-08-21T04:42:29;4.30;;;1.48;;
30697;SDS011;17448;47.200;10.902;2022-08-21T04:44:55;2.38;;;1.30;;
30697;SDS011;17448;47.200;10.902;2022-08-21T04:47:22;3.47;;;1.35;;
30697;SDS011;17448;47.200;10.902;2022-08-21T04:49:49;1.90;;;1.45;;
30697;SDS011;17448;47.200;10.902;2022-08-21T04:52:17;2.90;;;1.60;;
30697;SDS011;17448;47.200;10.902;2022-08-21T04:54:45;2.33;;;1.30;;
30697;SDS011;17448;47.200;10.902;2022-08-21T04:57:11;3.88;;;1.70;;
30697;SDS011;17448;47.200;10.902;2022-08-21T04:59:41;1.63;;;1.17;;
30697;SDS011;17448;47.200;10.902;2022-08-21T05:02:09;5.47;;;1.15;;
30697;SDS011;17448;47.200;10.902;2022-08-21T05:04:36;2.30;;;1.75;;
30697;SDS011;17448;47.200;10.902;2022-08-21T05:07:05;2.28;;;1.80;;
30697;SDS011;17448;47.200;10.902;2022-08-21T05:09:32;3.58;;;1.38;;
30697;SDS011;17448;47.200;10.902;2022-08-21T05:12:00;3.40;;;1.83;;
30697;SDS011;17448;47.200;10.902;2022-08-21T05:14:26;4.10;;;1.55;;
30697;SDS011;17448;47.200;10.902;2022-08-21T05:16:53;7.63;;;2.05;;
30697;SDS011;17448;47.200;10.902;2022-08-21T05:19:19;5.43;;;2.30;;
30697;SDS011;17448;47.200;10.902;2022-08-21T05:21:45;3.67;;;1.67;;
30697;SDS011;17448;47.200;10.902;2022-08-21T05:24:12;4.50;;;1.40;;
30697;SDS011;17448;47.200;10.902;2022-08-21T05:26:39;7.47;;;1.70;;
30697;SDS011;17448;47.200;10.902;2022-08-21T05:29:05;3.20;;;1.40;;
30697;SDS011;17448;47.200;10.902;2022-08-21T05:31:32;2.30;;;1.50;;
30697;SDS011;17448;47.200;10.902;2022-08-21T05:33:58;3.20;;;2.08;;
30697;SDS011;17448;47.200;10.902;2022-08-21T05:36:24;2.83;;;1.75;;
30697;SDS011;17448;47.200;10.902;2022-08-21T05:38:50;2.05;;;1.75;;
30697;SDS011;17448;47.200;10.902;2022-08-21T05:41:16;1.92;;;1.58;;
30697;SDS011;17448;47.200;10.902;2022-08-21T05:43:42;3.90;;;1.67;;
30697;SDS011;17448;47.200;10.902;2022-08-21T05:46:09;4.35;;;1.80;;
30697;SDS011;17448;47.200;10.902;2022-08-21T05:48:35;5.97;;;1.88;;
30697;SDS011;17448;47.200;10.902;2022-08-21T05:51:06;3.33;;;1.60;;
30697;SDS011;17448;47.200;10.902;2022-08-21T05:53:32;2.22;;;1.60;;
30697;SDS011;17448;47.200;10.902;2022-08-21T05:55:58;3.55;;;1.95;;
30697;SDS011;17448;47.200;10.902;2022-08-21T05:58:27;4.90;;;2.05;;
30697;SDS011;17448;47.200;10.902;2022-08-21T06:00:53;7.40;;;2.00;;
30697;SDS011;17448;47.200;10.902;2022-08-21T06:03:21;4.30;;;1.98;;
30697;SDS011;17448;47.200;10.902;2022-08-21T06:05:48;4.43;;;1.42;;
30697;SDS011;17448;47.200;10.902;2022-08-21T06:08:15;3.35;;;1.77;;
30697;SDS011;17448;47.200;10.902;2022-08-21T06:10:42;4.93;;;1.80;;
30697;SDS011;17448;47.200;10.902;2022-08-21T06:13:08;2.40;;;1.50;;
30697;SDS011;17448;47.200;10.902;2022-08-21T06:15:34;4.03;;;2.63;;
30697;SDS011;17448;47.200;10.902;2022-08-21T06:18:00;5.97;;;2.97;;
30697;SDS011;17448;47.200;10.902;2022-08-21T06:20:27;6.45;;;2.92;;
30697;SDS011;17448;47.200;10.902;2022-08-21T06:22:53;6.45;;;3.53;;
30697;SDS011;17448;47.200;10.902;2022-08-21T06:25:19;3.63;;;2.88;;
30697;SDS011;17448;47.200;10.902;2022-08-21T06:27:46;4.88;;;2.53;;
30697;SDS011;17448;47.200;10.902;2022-08-21T06:30:12;4.82;;;2.10;;
30697;SDS011;17448;47.200;10.902;2022-08-21T06:32:39;4.93;;;2.40;;
30697;SDS011;17448;47.200;10.902;2022-08-21T06:35:05;3.33;;;2.05;;
30697;SDS011;17448;47.200;10.902;2022-08-21T06:37:32;2.75;;;2.30;;
30697;SDS011;17448;47.200;10.902;2022-08-21T06:39:58;5.95;;;2.70;;
30697;SDS011;17448;47.200;10.902;2022-08-21T06:42:24;4.43;;;2.95;;
30697;SDS011;17448;47.200;10.902;2022-08-21T06:44:52;7.28;;;3.35;;
30697;SDS011;17448;47.200;10.902;2022-08-21T06:47:18;4.97;;;2.30;;
30697;SDS011;17448;47.200;10.902;2022-08-21T06:49:44;11.43;;;2.70;;
30697;SDS011;17448;47.200;10.902;2022-08-21T06:52:11;4.30;;;2.65;;
30697;SDS011;17448;47.200;10.902;2022-08-21T06:54:37;4.55;;;3.00;;
30697;SDS011;17448;47.200;10.902;2022-08-21T06:57:03;4.03;;;2.40;;
30697;SDS011;17448;47.200;10.902;2022-08-21T06:59:29;4.50;;;3.30;;
30697;SDS011;17448;47.200;10.902;2022-08-21T07:01:57;3.47;;;2.90;;
30697;SDS011;17448;47.200;10.902;2022-08-21T07:04:23;6.47;;;3.47;;
30697;SDS011;17448;47.200;10.902;2022-08-21T07:06:49;6.43;;;3.08;;
30697;SDS011;17448;47.200;10.902;2022-08-21T07:09:15;6.85;;;3.80;;
30697;SDS011;17448;47.200;10.902;2022-08-21T07:11:42;2.78;;;2.22;;
30697;SDS011;17448;47.200;10.902;2022-08-21T07:14:09;3.30;;;2.63;;
30697;SDS011;17448;47.200;10.902;2022-08-21T07:16:35;4.07;;;2.58;;
30697;SDS011;17448;47.200;10.902;2022-08-21T07:19:01;2.63;;;2.30;;
30697;SDS011;17448;47.200;10.902;2022-08-21T07:21:27;3.33;;;2.38;;
30697;SDS011;17448;47.200;10.902;2022-08-21T07:23:53;7.72;;;2.65;;
30697;SDS011;17448;47.200;10.902;2022-08-21T07:26:21;3.58;;;2.47;;
30697;SDS011;17448;47.200;10.902;2022-08-21T07:28:47;3.50;;;2.63;;
30697;SDS011;17448;47.200;10.902;2022-08-21T07:31:15;2.90;;;2.20;;
30697;SDS011;17448;47.200;10.902;2022-08-21T07:33:42;5.95;;;2.50;;
30697;SDS011;17448;47.200;10.902;2022-08-21T07:36:09;2.70;;;2.13;;
30697;SDS011;17448;47.200;10.902;2022-08-21T07:38:35;2.20;;;1.98;;
30697;SDS011;17448;47.200;10.902;2022-08-21T07:57:43;5.40;;;1.50;;
30697;SDS011;17448;47.200;10.902;2022-08-21T08:00:12;3.85;;;1.80;;
30697;SDS011;17448;47.200;10.902;2022-08-21T08:05:31;2.85;;;1.70;;
30697;SDS011;17448;47.200;10.902;2022-08-21T08:16:49;3.60;;;1.45;;
30697;SDS011;17448;47.200;10.902;2022-08-21T08:19:18;1.65;;;1.50;;
30697;SDS011;17448;47.200;10.902;2022-08-21T08:21:44;2.17;;;1.73;;
30697;SDS011;17448;47.200;10.902;2022-08-21T08:24:12;8.82;;;1.58;;
30697;SDS011;17448;47.200;10.902;2022-08-21T08:26:39;2.58;;;1.75;;
30697;SDS011;17448;47.200;10.902;2022-08-21T08:29:06;2.47;;;1.70;;
30697;SDS011;17448;47.200;10.902;2022-08-21T10:20:37;2.33;;;1.50;;
30697;SDS011;17448;47.200;10.902;2022-08-21T10:23:28;2.60;;;1.50;;
30697;SDS011;17448;47.200;10.902;2022-08-21T10:45:20;2.28;;;1.33;;
30697;SDS011;17448;47.200;10.902;2022-08-21T10:47:54;1.88;;;1.42;;
30697;SDS011;17448;47.200;10.902;2022-08-21T10:55:36;1.52;;;1.33;;
30697;SDS011;17448;47.200;10.902;2022-08-21T10:58:06;1.77;;;1.20;;
30697;SDS011;17448;47.200;10.902;2022-08-21T11:00:36;2.17;;;1.23;;
30697;SDS011;17448;47.200;10.902;2022-08-21T11:03:16;1.63;;;1.25;;
30697;SDS011;17448;47.200;10.902;2022-08-21T11:08:26;1.42;;;1.30;;
30697;SDS011;17448;47.200;10.902;2022-08-21T11:10:55;1.42;;;1.20;;
30697;SDS011;17448;47.200;10.902;2022-08-21T11:13:31;0.80;;;0.80;;
30697;SDS011;17448;47.200;10.902;2022-08-21T11:16:14;1.33;;;1.00;;
30697;SDS011;17448;47.200;10.902;2022-08-21T11:19:02;2.03;;;1.20;;
30697;SDS011;17448;47.200;10.902;2022-08-21T11:21:38;1.85;;;0.90;;
30697;SDS011;17448;47.200;10.902;2022-08-21T11:29:11;2.53;;;0.90;;
30697;SDS011;17448;47.200;10.902;2022-08-21T11:31:44;1.13;;;1.00;;
30697;SDS011;17448;47.200;10.902;2022-08-21T11:37:23;1.10;;;1.00;;
30697;SDS011;17448;47.200;10.902;2022-08-21T11:44:44;1.05;;;0.95;;
30697;SDS011;17448;47.200;10.902;2022-08-21T11:47:14;0.70;;;0.70;;
30697;SDS011;17448;47.200;10.902;2022-08-21T11:54:43;3.28;;;0.90;;
30697;SDS011;17448;47.200;10.902;2022-08-21T11:57:19;0.82;;;0.80;;
30697;SDS011;17448;47.200;10.902;2022-08-21T11:59:51;1.20;;;1.00;;
30697;SDS011;17448;47.200;10.902;2022-08-21T12:02:20;1.20;;;0.80;;
30697;SDS011;17448;47.200;10.902;2022-08-21T12:04:54;0.70;;;0.70;;
30697;SDS011;17448;47.200;10.902;2022-08-21T12:07:29;2.13;;;1.08;;
30697;SDS011;17448;47.200;10.902;2022-08-21T12:09:56;0.75;;;0.75;;
30697;SDS011;17448;47.200;10.902;2022-08-21T12:12:27;0.80;;;0.80;;
30697;SDS011;17448;47.200;10.902;2022-08-21T12:17:40;0.77;;;0.77;;
30697;SDS011;17448;47.200;10.902;2022-08-21T12:20:26;0.77;;;0.77;;
30697;SDS011;17448;47.200;10.902;2022-08-21T12:25:38;1.23;;;0.80;;
30697;SDS011;17448;47.200;10.902;2022-08-21T12:28:07;3.65;;;0.82;;
30697;SDS011;17448;47.200;10.902;2022-08-21T12:30:36;0.85;;;0.70;;
30697;SDS011;17448;47.200;10.902;2022-08-21T12:33:04;0.85;;;0.70;;
30697;SDS011;17448;47.200;10.902;2022-08-21T12:35:38;0.73;;;0.63;;
30697;SDS011;17448;47.200;10.902;2022-08-21T12:43:18;0.65;;;0.57;;
30697;SDS011;17448;47.200;10.902;2022-08-21T12:45:47;1.98;;;0.80;;
30697;SDS011;17448;47.200;10.902;2022-08-21T12:48:15;0.80;;;0.80;;
30697;SDS011;17448;47.200;10.902;2022-08-21T12:50:54;0.82;;;0.60;;
30697;SDS011;17448;47.200;10.902;2022-08-21T12:53:30;1.05;;;0.70;;
30697;SDS011;17448;47.200;10.902;2022-08-21T12:56:01;0.77;;;0.75;;
30697;SDS011;17448;47.200;10.902;2022-08-21T12:58:29;0.95;;;0.73;;
30697;SDS011;17448;47.200;10.902;2022-08-21T13:03:24;1.63;;;0.57;;
30697;SDS011;17448;47.200;10.902;2022-08-21T13:05:51;1.35;;;0.77;;
30697;SDS011;17448;47.200;10.902;2022-08-21T13:08:19;0.75;;;0.70;;
30697;SDS011;17448;47.200;10.902;2022-08-21T13:10:45;1.05;;;0.85;;
30697;SDS011;17448;47.200;10.902;2022-08-21T13:13:17;0.80;;;0.80;;
30697;SDS011;17448;47.200;10.902;2022-08-21T13:15:45;1.95;;;0.60;;
30697;SDS011;17448;47.200;10.902;2022-08-21T13:18:19;0.65;;;0.65;;
30697;SDS011;17448;47.200;10.902;2022-08-21T13:20:46;0.70;;;0.70;;
30697;SDS011;17448;47.200;10.902;2022-08-21T13:25:44;0.63;;;0.60;;
30697;SDS011;17448;47.200;10.902;2022-08-21T13:28:11;1.38;;;0.70;;
30697;SDS011;17448;47.200;10.902;2022-08-21T13:30:43;1.27;;;0.70;;
30697;SDS011;17448;47.200;10.902;2022-08-21T13:33:10;1.33;;;0.82;;
30697;SDS011;17448;47.200;10.902;2022-08-21T13:38:13;2.40;;;0.77;;
30697;SDS011;17448;47.200;10.902;2022-08-21T13:40:44;0.80;;;0.80;;
30697;SDS011;17448;47.200;10.902;2022-08-21T13:43:16;2.25;;;0.70;;
30697;SDS011;17448;47.200;10.902;2022-08-21T13:45:46;0.60;;;0.60;;
30697;SDS011;17448;47.200;10.902;2022-08-21T13:48:13;1.20;;;0.70;;
30697;SDS011;17448;47.200;10.902;2022-08-21T13:50:39;0.90;;;0.70;;
30697;SDS011;17448;47.200;10.902;2022-08-21T13:53:07;0.60;;;0.60;;
30697;SDS011;17448;47.200;10.902;2022-08-21T13:55:45;0.65;;;0.65;;
30697;SDS011;17448;47.200;10.902;2022-08-21T13:58:12;1.00;;;0.90;;
30697;SDS011;17448;47.200;10.902;2022-08-21T14:00:49;0.70;;;0.70;;
30697;SDS011;17448;47.200;10.902;2022-08-21T14:03:25;1.42;;;0.80;;
30697;SDS011;17448;47.200;10.902;2022-08-21T14:05:56;2.85;;;1.48;;
30697;SDS011;17448;47.200;10.902;2022-08-21T14:11:23;1.00;;;0.90;;
30697;SDS011;17448;47.200;10.902;2022-08-21T14:14:16;0.63;;;0.63;;
30697;SDS011;17448;47.200;10.902;2022-08-21T14:16:52;0.68;;;0.65;;
30697;SDS011;17448;47.200;10.902;2022-08-21T14:19:20;1.17;;;0.70;;
30697;SDS011;17448;47.200;10.902;2022-08-21T14:21:48;1.52;;;1.10;;
30697;SDS011;17448;47.200;10.902;2022-08-21T14:24:49;1.60;;;1.05;;
30697;SDS011;17448;47.200;10.902;2022-08-21T14:27:16;1.17;;;0.70;;
30697;SDS011;17448;47.200;10.902;2022-08-21T14:29:44;0.80;;;0.68;;
30697;SDS011;17448;47.200;10.902;2022-08-21T14:32:20;1.00;;;0.68;;
30697;SDS011;17448;47.200;10.902;2022-08-21T14:34:46;2.55;;;1.00;;
30697;SDS011;17448;47.200;10.902;2022-08-21T14:37:12;2.95;;;0.80;;
30697;SDS011;17448;47.200;10.902;2022-08-21T14:39:38;0.73;;;0.68;;
30697;SDS011;17448;47.200;10.902;2022-08-21T14:42:04;0.95;;;0.90;;
30697;SDS011;17448;47.200;10.902;2022-08-21T14:44:31;1.27;;;0.90;;
30697;SDS011;17448;47.200;10.902;2022-08-21T14:46:57;2.70;;;2.03;;
30697;SDS011;17448;47.200;10.902;2022-08-21T14:49:25;3.05;;;1.80;;
30697;SDS011;17448;47.200;10.902;2022-08-21T14:51:52;1.10;;;0.77;;
30697;SDS011;17448;47.200;10.902;2022-08-21T14:54:22;2.50;;;0.70;;
30697;SDS011;17448;47.200;10.902;2022-08-21T14:56:49;2.83;;;1.30;;
30697;SDS011;17448;47.200;10.902;2022-08-21T14:59:15;5.07;;;2.20;;
30697;SDS011;17448;47.200;10.902;2022-08-21T15:01:42;0.93;;;0.85;;
30697;SDS011;17448;47.200;10.902;2022-08-21T15:04:09;1.85;;;0.90;;
30697;SDS011;17448;47.200;10.902;2022-08-21T15:06:36;12.10;;;3.22;;
30697;SDS011;17448;47.200;10.902;2022-08-21T15:09:03;3.22;;;1.02;;
30697;SDS011;17448;47.200;10.902;2022-08-21T15:11:30;1.27;;;0.90;;
30697;SDS011;17448;47.200;10.902;2022-08-21T15:13:59;1.85;;;0.85;;
30697;SDS011;17448;47.200;10.902;2022-08-21T15:16:26;0.85;;;0.85;;
30697;SDS011;17448;47.200;10.902;2022-08-21T15:18:53;0.90;;;0.77;;
30697;SDS011;17448;47.200;10.902;2022-08-21T15:21:19;1.80;;;0.90;;
30697;SDS011;17448;47.200;10.902;2022-08-21T15:23:46;1.13;;;0.80;;
30697;SDS011;17448;47.200;10.902;2022-08-21T15:26:12;1.08;;;0.70;;
30697;SDS011;17448;47.200;10.902;2022-08-21T15:28:39;0.77;;;0.77;;
30697;SDS011;17448;47.200;10.902;2022-08-21T15:31:05;1.60;;;0.80;;
30697;SDS011;17448;47.200;10.902;2022-08-21T15:33:32;1.95;;;1.08;;
30697;SDS011;17448;47.200;10.902;2022-08-21T15:35:59;1.50;;;1.27;;
30697;SDS011;17448;47.200;10.902;2022-08-21T15:38:25;2.15;;;1.38;;
30697;SDS011;17448;47.200;10.902;2022-08-21T15:40:51;0.80;;;0.80;;
30697;SDS011;17448;47.200;10.902;2022-08-21T15:45:49;3.92;;;2.40;;
30697;SDS011;17448;47.200;10.902;2022-08-21T15:48:15;1.90;;;1.38;;
30697;SDS011;17448;47.200;10.902;2022-08-21T15:50:42;1.40;;;1.13;;
30697;SDS011;17448;47.200;10.902;2022-08-21T15:53:08;1.45;;;1.20;;
30697;SDS011;17448;47.200;10.902;2022-08-21T15:55:35;1.02;;;0.93;;
30697;SDS011;17448;47.200;10.902;2022-08-21T15:58:02;1.25;;;1.10;;
30697;SDS011;17448;47.200;10.902;2022-08-21T16:00:29;1.20;;;1.10;;
30697;SDS011;17448;47.200;10.902;2022-08-21T16:02:58;1.90;;;0.82;;
30697;SDS011;17448;47.200;10.902;2022-08-21T16:05:25;0.77;;;0.77;;
30697;SDS011;17448;47.200;10.902;2022-08-21T16:07:51;2.03;;;1.08;;
30697;SDS011;17448;47.200;10.902;2022-08-21T16:10:19;1.10;;;1.02;;
30697;SDS011;17448;47.200;10.902;2022-08-21T16:12:47;0.80;;;0.80;;
30697;SDS011;17448;47.200;10.902;2022-08-21T16:18:12;1.15;;;1.05;;
30697;SDS011;17448;47.200;10.902;2022-08-21T16:23:41;4.78;;;1.50;;
30697;SDS011;17448;47.200;10.902;2022-08-21T16:26:08;2.53;;;1.25;;
30697;SDS011;17448;47.200;10.902;2022-08-21T16:50:02;2.67;;;1.40;;
30697;SDS011;17448;47.200;10.902;2022-08-21T17:17:58;2.10;;;1.47;;
30697;SDS011;17448;47.200;10.902;2022-08-21T17:23:31;3.38;;;1.80;;
30697;SDS011;17448;47.200;10.902;2022-08-21T17:25:58;5.50;;;1.50;;
30697;SDS011;17448;47.200;10.902;2022-08-21T18:04:35;6.40;;;1.95;;
30697;SDS011;17448;47.200;10.902;2022-08-21T18:16:15;5.43;;;1.58;;
30697;SDS011;17448;47.200;10.902;2022-08-21T18:29:55;9.27;;;2.63;;
30697;SDS011;17448;47.200;10.902;2022-08-21T18:32:29;5.80;;;1.90;;
30697;SDS011;17448;47.200;10.902;2022-08-21T18:34:59;2.85;;;1.52;;
30697;SDS011;17448;47.200;10.902;2022-08-21T18:38:00;5.00;;;2.10;;
30697;SDS011;17448;47.200;10.902;2022-08-21T18:40:30;6.15;;;2.10;;
30697;SDS011;17448;47.200;10.902;2022-08-21T18:44:13;1.65;;;1.52;;
30697;SDS011;17448;47.200;10.902;2022-08-21T18:46:45;2.47;;;1.77;;
30697;SDS011;17448;47.200;10.902;2022-08-21T18:49:17;6.25;;;2.65;;
30697;SDS011;17448;47.200;10.902;2022-08-21T18:51:49;7.70;;;2.90;;
30697;SDS011;17448;47.200;10.902;2022-08-21T18:54:23;4.40;;;1.63;;
30697;SDS011;17448;47.200;10.902;2022-08-21T18:57:01;2.53;;;1.90;;
30697;SDS011;17448;47.200;10.902;2022-08-21T18:59:28;8.65;;;2.75;;
30697;SDS011;17448;47.200;10.902;2022-08-21T19:01:59;8.32;;;3.25;;
30697;SDS011;17448;47.200;10.902;2022-08-21T19:07:15;3.25;;;1.48;;
30697;SDS011;17448;47.200;10.902;2022-08-21T19:09:45;6.03;;;2.20;;
30697;SDS011;17448;47.200;10.902;2022-08-21T19:12:24;6.40;;;2.22;;
30697;SDS011;17448;47.200;10.902;2022-08-21T19:14:59;4.20;;;1.90;;
30697;SDS011;17448;47.200;10.902;2022-08-21T19:17:27;6.13;;;1.80;;
30697;SDS011;17448;47.200;10.902;2022-08-21T19:19:56;5.40;;;1.70;;
30697;SDS011;17448;47.200;10.902;2022-08-21T19:22:27;5.68;;;2.05;;
30697;SDS011;17448;47.200;10.902;2022-08-21T19:27:25;3.60;;;1.80;;
30697;SDS011;17448;47.200;10.902;2022-08-21T19:29:54;2.25;;;1.50;;
30697;SDS011;17448;47.200;10.902;2022-08-21T19:32:21;3.38;;;2.00;;
30697;SDS011;17448;47.200;10.902;2022-08-21T19:34:47;6.63;;;1.90;;
30697;SDS011;17448;47.200;10.902;2022-08-21T19:37:15;5.32;;;1.70;;
30697;SDS011;17448;47.200;10.902;2022-08-21T19:51:01;5.75;;;1.83;;
30697;SDS011;17448;47.200;10.902;2022-08-21T19:56:30;8.38;;;1.95;;
30697;SDS011;17448;47.200;10.902;2022-08-21T20:02:00;6.53;;;1.90;;
30697;SDS011;17448;47.200;10.902;2022-08-21T20:07:30;3.85;;;2.08;;
30697;SDS011;17448;47.200;10.902;2022-08-21T20:09:57;9.30;;;2.05;;
30697;SDS011;17448;47.200;10.902;2022-08-21T20:12:26;2.75;;;2.38;;
30697;SDS011;17448;47.200;10.902;2022-08-21T20:14:52;5.45;;;2.08;;
30697;SDS011;17448;47.200;10.902;2022-08-21T20:17:22;7.68;;;3.25;;
30697;SDS011;17448;47.200;10.902;2022-08-21T20:19:50;4.80;;;2.15;;
30697;SDS011;17448;47.200;10.902;2022-08-21T20:27:44;6.60;;;2.42;;
30697;SDS011;17448;47.200;10.902;2022-08-21T20:30:11;4.15;;;2.13;;
30697;SDS011;17448;47.200;10.902;2022-08-21T20:38:15;7.55;;;2.63;;
30697;SDS011;17448;47.200;10.902;2022-08-21T20:49:53;5.20;;;2.85;;